createdAt,value
2019-05-19T00:01:45.420Z,64.39
2019-05-19T00:04:17.357Z,62.35
2019-05-19T00:06:48.998Z,60.58
2019-05-19T00:09:20.725Z,58.83
2019-05-19T00:11:52.478Z,56.93
2019-05-19T00:14:24.022Z,57.82
2019-05-19T00:16:55.654Z,59.16
2019-05-19T00:19:27.331Z,60.23
2019-05-19T00:22:00.392Z,61.61
2019-05-19T00:24:31.938Z,62.74
2019-05-19T00:27:03.552Z,65.40
2019-05-19T00:29:35.395Z,63.34
2019-05-19T00:32:07.042Z,60.46
2019-05-19T00:34:38.582Z,58.35
2019-05-19T00:37:10.327Z,56.45
2019-05-19T00:39:42.070Z,57.23
2019-05-19T00:42:13.828Z,59.05
2019-05-19T00:44:45.569Z,60.38
2019-05-19T00:47:17.113Z,61.49
2019-05-19T00:49:48.667Z,62.32
2019-05-19T00:52:20.324Z,64.95
2019-05-19T00:54:52.072Z,63.46
2019-05-19T00:57:25.924Z,60.87
2019-05-19T00:59:58.774Z,58.99
2019-05-19T01:02:31.284Z,56.90
2019-05-19T01:05:03.300Z,57.89
2019-05-19T01:07:35.277Z,59.44
2019-05-19T01:10:10.588Z,60.82
2019-05-19T01:12:42.139Z,61.85
2019-05-19T01:15:14.288Z,63.20
2019-05-19T01:17:45.902Z,65.33
2019-05-19T01:20:18.580Z,63.24
2019-05-19T01:22:50.228Z,61.30
2019-05-19T01:25:22.073Z,58.73
2019-05-19T01:27:53.621Z,56.72
2019-05-19T01:30:25.255Z,57.78
2019-05-19T01:32:56.803Z,58.80
2019-05-19T01:35:28.339Z,60.31
2019-05-19T01:38:00.189Z,61.74
2019-05-19T01:40:31.733Z,62.31
2019-05-19T01:43:03.284Z,65.28
2019-05-19T01:45:34.918Z,63.59
2019-05-19T01:48:09.731Z,61.06
2019-05-19T01:50:41.469Z,59.72
2019-05-19T01:53:13.220Z,56.82
2019-05-19T01:55:44.972Z,58.15
2019-05-19T01:58:16.721Z,60.02
2019-05-19T02:00:48.267Z,60.96
2019-05-19T02:03:20.009Z,62.79
2019-05-19T02:05:51.749Z,64.94
2019-05-19T02:08:23.500Z,63.34
2019-05-19T02:10:55.252Z,61.12
2019-05-19T02:13:27.011Z,59.22
2019-05-19T02:15:58.565Z,57.53
2019-05-19T02:18:30.215Z,58.17
2019-05-19T02:21:03.410Z,59.43
2019-05-19T02:23:34.961Z,60.83
2019-05-19T02:26:06.525Z,61.70
2019-05-19T02:28:38.173Z,62.86
2019-05-19T02:31:09.717Z,65.49
2019-05-19T02:33:41.355Z,63.35
2019-05-19T02:36:12.904Z,60.38
2019-05-19T02:38:44.452Z,58.25
2019-05-19T02:41:18.273Z,56.94
2019-05-19T02:43:53.101Z,57.40
2019-05-19T02:46:26.551Z,59.30
2019-05-19T02:49:00.537Z,60.59
2019-05-19T02:51:35.162Z,61.54
2019-05-19T02:54:09.235Z,62.99
2019-05-19T02:56:41.055Z,65.50
2019-05-19T02:59:14.050Z,64.03
2019-05-19T03:02:02.657Z,61.49
2019-05-19T03:04:34.305Z,59.60
2019-05-19T03:07:06.155Z,57.73
2019-05-19T03:09:37.903Z,56.30
2019-05-19T03:12:09.739Z,57.95
2019-05-19T03:14:41.485Z,58.87
2019-05-19T03:17:13.224Z,59.89
2019-05-19T03:19:44.789Z,61.63
2019-05-19T03:22:16.332Z,63.09
2019-05-19T03:24:47.890Z,66.07
2019-05-19T03:27:19.454Z,64.08
2019-05-19T03:29:52.634Z,62.10
2019-05-19T03:32:34.790Z,61.30
2019-05-19T03:35:06.685Z,59.54
2019-05-19T03:37:38.358Z,57.31
2019-05-19T03:40:12.058Z,58.31
2019-05-19T03:42:43.595Z,59.44
2019-05-19T03:45:15.136Z,60.83
2019-05-19T03:47:46.850Z,62.13
2019-05-19T03:50:18.689Z,63.36
2019-05-19T03:52:50.440Z,65.91
2019-05-19T03:55:21.986Z,63.77
2019-05-19T03:57:53.523Z,61.90
2019-05-19T04:00:25.533Z,62.13
2019-05-19T04:02:57.076Z,59.96
2019-05-19T04:05:29.225Z,55.43
2019-05-19T04:08:01.014Z,54.48
2019-05-19T04:10:32.750Z,54.54
2019-05-19T04:13:04.504Z,53.23
2019-05-19T04:15:36.246Z,53.05
2019-05-19T04:18:07.984Z,53.10
2019-05-19T04:20:39.729Z,51.05
2019-05-19T04:23:11.569Z,52.94
2019-05-19T04:25:43.312Z,51.98
2019-05-19T04:28:15.047Z,50.61
2019-05-19T04:30:46.801Z,52.10
2019-05-19T04:33:18.550Z,52.47
2019-05-19T04:35:51.934Z,53.10
2019-05-19T04:38:23.582Z,54.79
2019-05-19T04:40:55.418Z,54.78
2019-05-19T04:43:27.162Z,55.04
2019-05-19T04:45:58.902Z,56.31
2019-05-19T04:48:32.703Z,57.18
2019-05-19T04:51:07.255Z,58.46
2019-05-19T04:53:41.227Z,59.79
2019-05-19T04:56:14.551Z,61.04
2019-05-19T04:58:46.293Z,61.94
2019-05-19T05:01:18.913Z,63.41
2019-05-19T05:03:50.455Z,63.83
2019-05-19T05:06:22.298Z,60.29
2019-05-19T05:08:53.975Z,58.49
2019-05-19T05:11:25.719Z,56.40
2019-05-19T05:13:57.468Z,57.31
2019-05-19T05:16:29.211Z,58.62
2019-05-19T05:19:05.147Z,59.37
2019-05-19T05:21:36.719Z,59.71
2019-05-19T05:24:10.206Z,61.10
2019-05-19T09:25:58.327Z,61.00
2019-05-19T09:28:31.212Z,62.51
2019-05-19T09:31:02.987Z,57.66
2019-05-19T09:33:36.567Z,54.32
2019-05-19T09:36:22.221Z,54.57
2019-05-19T09:38:53.937Z,54.90
2019-05-19T09:41:26.051Z,56.28
2019-05-19T09:43:58.781Z,58.19
2019-05-19T09:46:32.449Z,57.20
2019-05-19T09:49:26.149Z,56.01
2019-05-19T09:51:57.879Z,57.51
2019-05-19T09:54:44.100Z,58.36
2019-05-19T09:57:19.423Z,57.80
2019-05-19T09:59:54.865Z,57.26
2019-05-19T10:02:26.697Z,57.32
2019-05-19T10:04:58.720Z,57.41
2019-05-19T10:07:40.988Z,58.13
2019-05-19T10:10:30.495Z,60.01
2019-05-19T10:13:02.193Z,59.85
2019-05-19T10:15:36.610Z,60.12
2019-05-19T10:18:11.891Z,59.26
2019-05-19T10:20:43.766Z,60.40
2019-05-19T10:23:15.545Z,60.59
2019-05-19T10:25:50.906Z,60.02
2019-05-19T10:28:23.595Z,59.81
2019-05-19T10:30:56.332Z,59.32
2019-05-19T10:33:29.576Z,59.99
2019-05-19T10:36:07.813Z,59.62
2019-05-19T10:38:39.985Z,59.17
2019-05-19T10:41:19.007Z,58.99
2019-05-19T10:43:54.195Z,57.76
2019-05-19T10:46:25.792Z,58.27
2019-05-19T10:48:57.663Z,56.22
2019-05-19T10:51:32.366Z,56.96
2019-05-19T10:54:05.775Z,55.04
2019-05-19T10:56:39.049Z,55.43
2019-05-19T10:59:12.554Z,56.70
2019-05-19T11:01:48.681Z,56.91
2019-05-19T11:04:22.118Z,57.70
2019-05-19T11:06:53.699Z,57.25
2019-05-19T11:09:26.990Z,56.87
2019-05-19T11:12:00.539Z,56.16
2019-05-19T11:14:32.204Z,55.72
2019-05-19T11:17:05.633Z,51.08
2019-05-19T11:19:37.490Z,49.89
2019-05-19T11:22:10.825Z,50.29
2019-05-19T11:24:44.062Z,51.52
2019-05-19T11:27:15.885Z,52.62
2019-05-19T11:29:48.516Z,52.48
2019-05-19T11:32:20.267Z,50.93
2019-05-19T11:34:52.043Z,53.11
2019-05-19T11:37:23.787Z,52.62
2019-05-19T11:39:55.574Z,50.93
2019-05-19T11:42:27.350Z,51.98
2019-05-19T11:44:59.104Z,52.78
2019-05-19T11:47:30.862Z,53.15
2019-05-19T11:50:02.662Z,50.69
2019-05-19T11:52:34.320Z,51.82
2019-05-19T11:55:09.408Z,51.26
2019-05-19T11:57:41.271Z,52.30
2019-05-19T12:00:14.029Z,51.12
2019-05-19T12:02:45.683Z,50.90
2019-05-19T12:05:19.141Z,51.04
2019-05-19T12:07:50.801Z,49.42
2019-05-19T12:10:22.569Z,49.81
2019-05-19T12:12:56.127Z,50.12
2019-05-19T12:15:27.975Z,49.44
2019-05-19T12:18:00.023Z,48.65
2019-05-19T12:20:32.022Z,48.85
2019-05-19T12:23:03.805Z,48.85
2019-05-19T12:25:35.496Z,48.94
2019-05-19T12:28:07.251Z,47.88
2019-05-19T12:30:42.898Z,48.20
2019-05-19T12:33:16.019Z,49.07
2019-05-19T12:35:47.685Z,48.07
2019-05-19T12:38:19.518Z,48.68
2019-05-19T12:40:52.739Z,49.64
2019-05-19T12:43:25.461Z,48.70
2019-05-19T12:45:57.334Z,50.01
2019-05-19T12:48:28.981Z,49.34
2019-05-19T12:51:01.937Z,48.66
2019-05-19T12:53:33.790Z,46.87
2019-05-19T12:56:05.630Z,46.46
2019-05-19T12:58:37.317Z,47.89
2019-05-19T13:01:09.103Z,47.45
2019-05-19T13:03:41.137Z,47.60
2019-05-19T13:06:12.909Z,47.93
2019-05-19T13:08:45.810Z,49.04
2019-05-19T13:11:17.597Z,49.54
2019-05-19T13:13:49.401Z,49.05
2019-05-19T13:16:21.110Z,49.32
2019-05-19T13:18:54.447Z,49.23
2019-05-19T13:21:27.794Z,49.10
2019-05-19T13:23:59.463Z,49.46
2019-05-19T13:26:31.238Z,49.65
2019-05-19T13:29:03.331Z,49.45
2019-05-19T13:31:35.831Z,49.79
2019-05-19T13:34:08.328Z,50.54
2019-05-19T13:36:40.495Z,51.00
2019-05-19T13:39:12.531Z,50.82
2019-05-19T13:41:44.304Z,50.83
2019-05-19T13:44:16.011Z,50.61
2019-05-19T13:46:49.148Z,51.02
2019-05-19T13:49:21.099Z,50.56
2019-05-19T13:51:52.866Z,51.02
2019-05-19T13:54:25.781Z,50.40
2019-05-19T13:57:11.271Z,50.74
2019-05-19T13:59:30.869Z,50.50
2019-05-19T14:02:03.188Z,51.22
2019-05-19T14:04:35.218Z,50.95
2019-05-19T14:07:08.896Z,51.47
2019-05-19T14:09:40.647Z,51.52
2019-05-19T14:12:13.271Z,51.58
2019-05-19T14:14:45.096Z,51.47
2019-05-19T14:17:20.021Z,51.33
2019-05-19T14:19:53.508Z,52.08
2019-05-19T14:22:25.255Z,51.78
2019-05-19T14:24:57.310Z,51.36
2019-05-19T14:27:30.682Z,51.89
2019-05-19T14:30:02.443Z,51.68
2019-05-19T14:32:34.125Z,51.62
2019-05-19T14:35:07.691Z,51.26
2019-05-19T14:37:39.301Z,50.98
2019-05-19T14:40:14.082Z,50.78
2019-05-19T14:42:50.504Z,50.56
2019-05-19T14:45:22.155Z,50.52
2019-05-19T14:47:53.898Z,49.71
2019-05-19T14:50:25.654Z,50.93
2019-05-19T14:52:59.372Z,49.63
2019-05-19T14:55:31.014Z,49.76
2019-05-19T14:58:02.749Z,48.53
2019-05-19T15:00:34.652Z,47.14
2019-05-19T15:03:06.277Z,44.92
2019-05-19T15:05:38.035Z,46.25
2019-05-19T15:08:11.052Z,45.77
2019-05-19T15:10:43.065Z,45.95
2019-05-19T15:13:14.655Z,47.02
2019-05-19T15:15:50.171Z,46.93
2019-05-19T15:18:23.267Z,47.05
2019-05-19T15:20:55.406Z,48.38
2019-05-19T15:23:28.972Z,46.20
2019-05-19T15:26:00.537Z,46.22
2019-05-19T15:28:32.449Z,46.29
2019-05-19T15:31:08.146Z,46.68
2019-05-19T15:33:44.954Z,47.61
2019-05-19T15:36:18.311Z,45.75
2019-05-19T15:38:56.376Z,46.14
2019-05-19T15:41:32.427Z,46.62
2019-05-19T15:44:04.730Z,45.88
2019-05-19T15:46:36.593Z,43.53
2019-05-19T15:49:08.318Z,46.05
2019-05-19T15:51:40.176Z,47.50
2019-05-19T15:54:11.935Z,47.48
2019-05-19T15:56:43.874Z,47.83
2019-05-19T15:59:15.696Z,48.64
2019-05-19T16:01:47.475Z,48.76
2019-05-19T16:04:19.211Z,48.23
2019-05-19T16:06:51.145Z,48.27
2019-05-19T16:09:23.326Z,48.93
2019-05-19T16:11:55.178Z,49.81
2019-05-19T16:14:27.020Z,50.75
2019-05-19T16:16:58.668Z,52.22
2019-05-19T16:19:30.721Z,53.11
2019-05-19T16:22:02.493Z,53.73
2019-05-19T16:24:36.615Z,55.34
2019-05-19T16:27:08.481Z,56.87
2019-05-19T16:29:40.239Z,56.79
2019-05-19T16:32:13.172Z,57.63
2019-05-19T16:34:45.868Z,58.61
2019-05-19T16:37:18.851Z,59.31
2019-05-19T16:39:50.606Z,59.94
2019-05-19T16:42:23.354Z,60.61
2019-05-19T16:44:55.099Z,61.48
2019-05-19T16:47:26.868Z,61.19
2019-05-19T16:49:58.523Z,62.40
2019-05-19T16:52:30.451Z,63.12
2019-05-19T16:55:18.762Z,60.03
2019-05-19T16:57:50.832Z,57.64
2019-05-19T17:00:24.747Z,58.34
2019-05-19T17:02:56.317Z,58.55
2019-05-19T17:05:28.238Z,60.06
2019-05-19T17:07:59.968Z,60.64
2019-05-19T17:10:33.220Z,61.31
2019-05-19T17:13:04.980Z,61.78
2019-05-19T17:15:36.760Z,62.20
2019-05-19T17:18:09.988Z,59.06
2019-05-19T17:20:41.847Z,57.59
2019-05-19T17:23:13.629Z,58.56
2019-05-19T17:25:45.357Z,59.33
2019-05-19T17:28:17.152Z,60.03
2019-05-19T17:30:48.921Z,61.12
2019-05-19T17:33:20.741Z,61.37
2019-05-19T17:35:53.404Z,62.25
2019-05-19T17:38:27.166Z,62.15
2019-05-19T17:40:58.805Z,59.61
2019-05-19T17:43:30.678Z,56.23
2019-05-19T17:46:02.445Z,56.82
2019-05-19T17:48:35.533Z,57.33
2019-05-19T17:51:07.654Z,57.93
2019-05-19T17:53:39.577Z,57.95
2019-05-19T17:56:14.727Z,58.67
2019-05-19T17:58:47.560Z,59.70
2019-05-19T18:01:19.119Z,60.21
2019-05-19T18:03:51.056Z,60.94
2019-05-19T18:06:22.792Z,61.27
2019-05-19T18:08:54.481Z,61.73
2019-05-19T18:11:27.473Z,62.12
2019-05-19T18:13:59.161Z,61.69
2019-05-19T18:16:30.897Z,61.20
2019-05-19T18:19:04.305Z,61.98
2019-05-19T18:21:36.003Z,62.64
2019-05-19T18:24:07.768Z,63.25
2019-05-19T18:26:42.381Z,58.78
2019-05-19T18:29:14.043Z,58.70
2019-05-19T18:31:45.766Z,58.90
2019-05-19T18:34:17.527Z,59.00
2019-05-19T18:36:52.006Z,58.82
2019-05-19T18:39:23.605Z,58.76
2019-05-19T18:41:55.240Z,60.99
2019-05-19T18:44:27.033Z,61.88
2019-05-19T18:46:59.440Z,62.91
2019-05-19T18:49:39.133Z,64.29
2019-05-19T18:52:16.439Z,61.33
2019-05-19T18:54:52.702Z,59.59
2019-05-19T18:57:30.106Z,56.86
2019-05-19T19:02:48.338Z,57.18
2019-05-19T19:05:20.110Z,57.83
2019-05-19T19:07:53.507Z,59.34
2019-05-19T19:10:25.170Z,61.07
2019-05-19T19:12:56.937Z,62.46
2019-05-19T19:15:28.683Z,63.43
2019-05-19T19:18:04.403Z,60.08
2019-05-19T19:20:36.319Z,58.30
2019-05-19T19:23:09.285Z,58.54
2019-05-19T19:25:42.253Z,59.55
2019-05-19T19:28:14.400Z,60.48
2019-05-19T19:30:50.243Z,61.50
2019-05-19T19:33:21.918Z,62.53
2019-05-19T19:35:56.769Z,61.65
2019-05-19T19:38:32.317Z,59.78
2019-05-19T19:41:05.330Z,57.61
2019-05-19T19:43:37.152Z,58.63
2019-05-19T19:46:08.825Z,59.87
2019-05-19T19:48:40.588Z,60.89
2019-05-19T19:51:13.455Z,62.13
2019-05-19T19:53:48.769Z,61.92
2019-05-19T19:56:22.829Z,58.83
2019-05-19T19:58:59.147Z,57.64
2019-05-19T20:01:31.078Z,58.65
2019-05-19T20:04:03.322Z,59.56
2019-05-19T20:06:34.913Z,60.09
2019-05-19T20:09:07.964Z,61.48
2019-05-19T20:11:40.951Z,62.03
2019-05-19T20:14:12.630Z,62.72
2019-05-19T20:16:44.368Z,63.36
2019-05-19T20:19:22.251Z,61.41
2019-05-19T20:21:54.146Z,59.59
2019-05-19T20:24:33.844Z,57.53
2019-05-19T20:27:07.149Z,58.06
2019-05-19T20:29:38.799Z,59.17
2019-05-19T20:32:13.329Z,60.12
2019-05-19T20:34:45.082Z,61.08
2019-05-19T20:37:17.994Z,61.88
2019-05-19T20:39:52.541Z,63.65
2019-05-19T20:42:25.887Z,61.60
2019-05-19T20:45:03.106Z,59.23
2019-05-19T20:47:37.047Z,57.52
2019-05-19T20:50:10.886Z,57.65
2019-05-19T20:52:43.733Z,58.71
2019-05-19T20:55:16.369Z,60.29
2019-05-19T20:57:49.662Z,60.74
2019-05-19T21:00:23.062Z,61.39
2019-05-19T21:02:54.612Z,62.20
2019-05-19T21:05:28.523Z,63.54
2019-05-19T21:08:02.445Z,62.19
2019-05-19T21:10:38.489Z,60.55
2019-05-19T21:13:13.912Z,58.55
2019-05-19T21:15:45.474Z,56.34
2019-05-19T21:18:17.187Z,57.12
2019-05-19T21:20:49.171Z,58.58
2019-05-19T21:23:21.332Z,59.39
2019-05-19T21:25:53.078Z,60.74
2019-05-19T21:28:26.224Z,62.10
2019-05-19T21:31:06.064Z,63.05
2019-05-19T21:33:31.214Z,65.18
2019-05-19T21:36:02.953Z,63.38
2019-05-19T21:38:34.672Z,61.48
2019-05-19T21:41:08.334Z,59.58
2019-05-19T21:43:40.059Z,57.60
2019-05-19T21:46:11.815Z,58.65
2019-05-19T21:48:43.529Z,59.21
2019-05-19T21:51:17.849Z,60.78
2019-05-19T21:53:50.859Z,62.30
2019-05-19T21:56:22.584Z,63.90
2019-05-19T21:58:54.318Z,62.07
2019-05-19T22:01:26.796Z,60.26
2019-05-19T22:03:58.421Z,58.27
2019-05-19T22:06:31.824Z,56.96
2019-05-19T22:09:04.385Z,57.82
2019-05-19T22:11:36.098Z,58.85
2019-05-19T22:14:07.917Z,60.25
2019-05-19T22:16:39.668Z,61.28
2019-05-19T22:19:11.399Z,62.33
2019-05-19T22:21:43.250Z,63.92
2019-05-19T22:24:14.973Z,62.37
2019-05-19T22:26:46.704Z,61.08
2019-05-19T22:29:18.439Z,59.02
2019-05-19T22:31:50.279Z,57.95
2019-05-19T22:34:22.025Z,58.72
2019-05-19T22:36:53.939Z,59.89
2019-05-19T22:39:25.764Z,61.34
2019-05-19T22:42:00.096Z,62.49
2019-05-19T22:44:31.719Z,64.33
2019-05-19T22:47:03.575Z,62.54
2019-05-19T22:49:35.278Z,60.27
2019-05-19T22:52:07.021Z,58.83
2019-05-19T22:54:38.843Z,56.93
2019-05-19T22:57:10.586Z,57.76
2019-05-19T22:59:42.307Z,59.09
2019-05-19T23:02:14.052Z,61.10
2019-05-19T23:04:45.885Z,62.36
2019-05-19T23:07:17.666Z,63.99
2019-05-19T23:09:49.382Z,62.79
2019-05-19T23:12:21.131Z,60.59
2019-05-19T23:14:54.323Z,58.72
2019-05-19T23:17:28.085Z,57.42
2019-05-19T23:19:59.803Z,58.45
2019-05-19T23:22:31.562Z,59.84
2019-05-19T23:25:03.757Z,61.03
2019-05-19T23:27:35.710Z,62.35
2019-05-19T23:30:11.183Z,64.35
2019-05-19T23:32:42.913Z,62.91
2019-05-19T23:35:14.700Z,61.09
2019-05-19T23:37:47.635Z,58.58
2019-05-19T23:40:19.363Z,57.33
2019-05-19T23:42:52.955Z,58.04
2019-05-19T23:45:24.678Z,60.06
2019-05-19T23:47:56.530Z,61.59
2019-05-19T23:50:28.257Z,63.00
2019-05-19T23:53:00.005Z,65.42
2019-05-19T23:55:32.605Z,63.71
2019-05-19T23:58:04.448Z,61.18
